createdAt,value
2019-05-11T00:00:11.340Z,99.90
2019-05-11T00:02:40.811Z,99.90
2019-05-11T00:05:10.444Z,99.90
2019-05-11T00:07:39.900Z,99.90
2019-05-11T00:10:09.368Z,99.90
2019-05-11T00:12:38.850Z,99.90
2019-05-11T00:15:08.380Z,99.90
2019-05-11T00:17:37.824Z,99.90
2019-05-11T00:20:07.790Z,99.90
2019-05-11T00:22:37.407Z,99.90
2019-05-11T00:25:07.085Z,99.90
2019-05-11T00:27:36.550Z,99.90
2019-05-11T00:30:06.358Z,99.90
2019-05-11T00:32:35.887Z,99.90
2019-05-11T00:35:05.539Z,99.90
2019-05-11T00:37:34.987Z,99.90
2019-05-11T00:40:13.760Z,99.90
2019-05-11T00:42:36.575Z,99.90
2019-05-11T00:45:07.140Z,99.90
2019-05-11T00:47:36.618Z,99.90
2019-05-11T00:50:39.129Z,99.90
2019-05-11T00:53:02.296Z,99.90
2019-05-11T00:55:31.731Z,99.90
2019-05-11T00:58:01.274Z,99.90
2019-05-11T01:00:30.682Z,99.90
2019-05-11T01:03:00.116Z,99.90
2019-05-11T01:05:29.605Z,99.90
2019-05-11T01:07:59.089Z,99.90
2019-05-11T01:10:41.034Z,99.90
2019-05-11T01:12:59.635Z,99.90
2019-05-11T01:15:29.103Z,99.90
2019-05-11T01:18:00.405Z,99.90
2019-05-11T01:20:29.834Z,99.90
2019-05-11T01:22:59.262Z,99.90
2019-05-11T01:25:29.005Z,99.90
2019-05-11T01:28:22.853Z,99.90
2019-05-11T01:30:53.031Z,99.90
2019-05-11T01:33:22.531Z,99.90
2019-05-11T01:35:51.970Z,99.90
2019-05-11T01:38:21.477Z,99.90
2019-05-11T01:43:46.715Z,99.90
2019-05-11T01:46:16.202Z,99.90
2019-05-11T01:48:45.646Z,99.90
2019-05-11T01:51:15.136Z,99.90
2019-05-11T01:53:47.933Z,99.90
2019-05-11T01:56:15.963Z,99.90
2019-05-11T01:58:45.409Z,99.90
2019-05-11T02:01:14.895Z,99.90
2019-05-11T02:03:44.787Z,99.90
2019-05-11T02:06:14.242Z,99.90
2019-05-11T02:08:43.807Z,99.90
2019-05-11T02:11:15.945Z,99.90
2019-05-11T02:13:44.745Z,99.90
2019-05-11T02:16:14.229Z,99.90
2019-05-11T02:18:44.103Z,99.90
2019-05-11T02:21:13.534Z,99.90
2019-05-11T02:23:42.956Z,99.90
2019-05-11T02:26:12.444Z,99.90
2019-05-11T02:28:41.956Z,99.90
2019-05-11T02:31:11.440Z,99.90
2019-05-11T02:33:40.940Z,99.90
2019-05-11T02:36:10.390Z,99.90
2019-05-11T02:38:39.830Z,99.90
2019-05-11T02:41:09.276Z,99.90
2019-05-11T02:43:38.721Z,99.90
2019-05-11T02:46:08.223Z,99.90
2019-05-11T02:48:37.673Z,99.90
2019-05-11T02:51:07.555Z,99.90
2019-05-11T02:53:37.474Z,99.90
2019-05-11T02:56:06.934Z,99.90
2019-05-11T02:58:36.381Z,99.90
2019-05-11T03:01:05.821Z,99.90
2019-05-11T03:03:35.310Z,99.90
2019-05-11T03:06:29.404Z,99.90
2019-05-11T03:08:58.832Z,99.90
2019-05-11T03:11:28.295Z,99.90
2019-05-11T03:13:57.904Z,99.90
2019-05-11T03:16:27.347Z,99.90
2019-05-11T03:18:56.785Z,99.90
2019-05-11T03:21:26.242Z,99.90
2019-05-11T03:24:00.084Z,99.90
2019-05-11T03:26:29.525Z,99.90
2019-05-11T03:28:59.049Z,99.90
2019-05-11T03:31:28.513Z,99.90
2019-05-11T03:34:00.842Z,99.90
2019-05-11T03:36:30.260Z,99.90
2019-05-11T03:38:59.689Z,99.90
2019-05-11T03:41:29.117Z,99.90
2019-05-11T03:43:58.636Z,99.90
2019-05-11T03:46:47.401Z,99.90
2019-05-11T03:49:16.895Z,99.90
2019-05-11T03:51:46.389Z,99.90
2019-05-11T03:54:15.908Z,99.90
2019-05-11T03:56:45.422Z,99.90
2019-05-11T03:59:15.011Z,99.90
2019-05-11T04:01:46.822Z,99.90
2019-05-11T04:04:16.839Z,99.90
2019-05-11T04:06:46.400Z,99.90
2019-05-11T04:09:15.829Z,99.90
2019-05-11T04:11:45.186Z,99.90
2019-05-11T04:14:15.770Z,99.90
2019-05-11T04:16:45.126Z,99.90
2019-05-11T04:19:14.580Z,99.90
2019-05-11T04:21:44.345Z,99.90
2019-05-11T04:24:13.855Z,99.90
2019-05-11T04:26:43.281Z,99.90
2019-05-11T04:29:12.771Z,99.90
2019-05-11T04:31:42.165Z,99.90
2019-05-11T04:34:11.617Z,99.90
2019-05-11T04:36:41.062Z,99.90
2019-05-11T04:39:10.539Z,99.90
2019-05-11T04:41:40.106Z,99.90
2019-05-11T04:44:09.567Z,99.90
2019-05-11T04:46:39.068Z,99.90
2019-05-11T04:49:08.510Z,99.90
2019-05-11T04:51:37.943Z,99.90
2019-05-11T04:54:07.347Z,99.90
2019-05-11T04:56:55.916Z,99.90
2019-05-11T04:59:25.351Z,99.90
2019-05-11T05:01:54.866Z,99.90
2019-05-11T05:04:24.786Z,99.90
2019-05-11T05:06:59.925Z,99.90
2019-05-11T05:09:25.429Z,99.90
2019-05-11T05:11:54.878Z,99.90
2019-05-11T05:14:24.341Z,99.90
2019-05-11T05:16:53.818Z,99.90
2019-05-11T05:19:23.322Z,99.90
2019-05-11T05:21:52.787Z,99.90
2019-05-11T05:24:22.258Z,99.90
2019-05-11T05:26:51.748Z,99.90
2019-05-11T05:29:21.236Z,99.90
2019-05-11T05:31:50.715Z,99.90
2019-05-11T05:34:20.135Z,99.90
2019-05-11T05:36:49.614Z,99.90
2019-05-11T05:39:19.016Z,99.90
2019-05-11T05:41:56.698Z,99.90
2019-05-11T05:44:19.483Z,99.90
2019-05-11T05:46:48.925Z,99.90
2019-05-11T05:49:18.388Z,99.90
2019-05-11T05:51:48.217Z,99.90
2019-05-11T05:54:17.670Z,99.90
2019-05-11T05:56:47.105Z,99.90
2019-05-11T05:59:16.627Z,99.90
2019-05-11T06:01:46.011Z,99.90
2019-05-11T06:04:15.499Z,99.90
2019-05-11T06:06:45.005Z,99.90
2019-05-11T06:09:14.437Z,99.90
2019-05-11T06:11:44.012Z,99.90
2019-05-11T06:14:15.486Z,99.90
2019-05-11T06:16:44.951Z,99.90
2019-05-11T06:19:14.408Z,99.90
2019-05-11T06:21:43.942Z,99.90
2019-05-11T06:24:15.632Z,99.90
2019-05-11T06:26:45.035Z,99.90
2019-05-11T06:29:14.484Z,99.90
2019-05-11T06:31:43.963Z,99.90
2019-05-11T06:34:13.540Z,99.90
2019-05-11T06:36:43.028Z,99.90
2019-05-11T06:39:12.460Z,99.90
2019-05-11T06:41:41.936Z,99.90
2019-05-11T06:57:32.755Z,99.90
2019-05-11T07:00:03.798Z,99.90
2019-05-11T07:02:33.236Z,99.90
2019-05-11T07:05:02.649Z,99.90
2019-05-11T07:07:46.416Z,99.90
2019-05-11T07:10:03.126Z,99.90
2019-05-11T07:12:32.538Z,99.90
2019-05-11T07:15:01.907Z,99.90
2019-05-11T07:17:31.167Z,99.90
2019-05-11T07:22:59.623Z,99.90
2019-05-11T07:25:29.102Z,99.90
2019-05-11T07:27:58.654Z,99.90
2019-05-11T07:30:30.063Z,99.90
2019-05-11T07:33:01.031Z,99.90
2019-05-11T07:35:32.187Z,99.90
2019-05-11T07:38:03.691Z,99.90
2019-05-11T07:40:33.096Z,99.90
2019-05-11T07:43:06.263Z,99.90
2019-05-11T07:45:33.698Z,99.90
2019-05-11T07:48:03.222Z,99.90
2019-05-11T07:50:32.760Z,99.90
2019-05-11T07:53:02.208Z,99.90
2019-05-11T07:55:31.630Z,99.90
2019-05-11T07:58:01.118Z,99.90
2019-05-11T08:00:30.576Z,99.90
2019-05-11T08:03:00.009Z,99.90
2019-05-11T08:05:29.473Z,99.90
2019-05-11T08:07:59.614Z,99.90
2019-05-11T08:10:29.275Z,99.90
2019-05-11T08:12:58.982Z,99.90
2019-05-11T08:15:28.583Z,99.90
2019-05-11T08:17:59.317Z,99.90
2019-05-11T08:20:30.033Z,99.90
2019-05-11T08:22:59.564Z,99.90
2019-05-11T08:25:29.161Z,99.90
2019-05-11T08:27:58.954Z,99.90
2019-05-11T08:30:48.622Z,99.90
2019-05-11T08:33:18.387Z,99.90
2019-05-11T08:35:48.151Z,99.90
2019-05-11T08:38:18.231Z,99.90
2019-05-11T08:40:48.470Z,99.90
2019-05-11T08:43:18.206Z,99.90
2019-05-11T08:45:48.497Z,99.90
2019-05-11T08:48:18.803Z,99.90
2019-05-11T08:50:48.989Z,99.90
2019-05-11T08:53:18.616Z,99.90
2019-05-11T08:55:48.625Z,99.90
2019-05-11T08:58:19.732Z,99.90
2019-05-11T09:00:50.351Z,99.90
2019-05-11T09:03:19.801Z,99.90
2019-05-11T09:05:49.321Z,99.90
2019-05-11T09:08:18.994Z,99.90
2019-05-11T09:10:49.091Z,99.90
2019-05-11T09:13:18.795Z,99.90
2019-05-11T09:15:49.411Z,99.90
2019-05-11T09:18:18.955Z,99.90
2019-05-11T09:23:41.308Z,99.90
2019-05-11T09:26:10.800Z,99.90
2019-05-11T09:28:40.262Z,99.90
2019-05-11T09:31:09.719Z,99.90
2019-05-11T09:33:39.136Z,99.90
2019-05-11T09:36:08.788Z,99.90
2019-05-11T09:38:39.385Z,99.90
2019-05-11T09:41:12.169Z,99.90
2019-05-11T09:43:40.193Z,99.90
2019-05-11T09:49:15.349Z,99.90
2019-05-11T09:54:50.548Z,99.90
2019-05-11T09:57:20.207Z,99.90
2019-05-11T09:59:49.986Z,99.90
2019-05-11T10:05:19.578Z,99.90
2019-05-11T10:07:49.028Z,99.90
2019-05-11T10:10:19.057Z,99.90
2019-05-11T10:12:52.755Z,99.90
2019-05-11T10:15:20.788Z,99.90
2019-05-11T10:17:51.663Z,99.90
2019-05-11T10:20:22.571Z,99.90
2019-05-11T10:22:54.386Z,99.90
2019-05-11T10:25:24.001Z,99.90
2019-05-11T10:27:54.131Z,99.90
2019-05-11T10:30:24.834Z,99.90
2019-05-11T10:32:57.792Z,99.90
2019-05-11T10:35:28.803Z,99.90
2019-05-11T10:37:58.502Z,99.90
2019-05-11T10:40:28.309Z,99.90
2019-05-11T10:42:58.961Z,99.90
2019-05-11T10:45:28.696Z,99.90
2019-05-11T10:48:00.955Z,99.90
2019-05-11T10:50:29.602Z,99.90
2019-05-11T10:52:59.224Z,99.90
2019-05-11T10:55:28.752Z,99.90
2019-05-11T10:57:58.245Z,99.90
2019-05-11T11:03:40.878Z,99.90
2019-05-11T11:06:10.431Z,99.90
2019-05-11T11:08:39.905Z,99.90
2019-05-11T11:11:09.360Z,99.90
2019-05-11T11:13:38.818Z,99.90
2019-05-11T11:16:08.516Z,99.90
2019-05-11T11:18:38.243Z,99.90
2019-05-11T11:21:08.673Z,99.90
2019-05-11T11:23:38.587Z,99.90
2019-05-11T11:26:08.353Z,99.90
2019-05-11T11:28:38.399Z,99.90
2019-05-11T11:31:08.013Z,99.90
2019-05-11T11:33:38.231Z,99.90
2019-05-11T11:36:08.545Z,99.90
2019-05-11T11:38:38.124Z,99.90
2019-05-11T11:41:08.032Z,99.90
2019-05-11T11:43:37.860Z,99.90
2019-05-11T11:46:32.102Z,99.90
2019-05-11T11:49:01.615Z,99.90
2019-05-11T11:54:38.618Z,99.90
2019-05-11T11:57:07.857Z,99.90
2019-05-11T11:59:38.567Z,99.90
2019-05-11T12:02:08.659Z,99.90
2019-05-11T12:04:40.116Z,99.90
2019-05-11T12:07:09.321Z,99.90
2019-05-11T12:09:38.776Z,99.90
2019-05-11T12:14:58.485Z,99.90
2019-05-11T12:17:28.659Z,99.90
2019-05-11T12:19:58.655Z,99.90
2019-05-11T12:22:28.242Z,99.90
2019-05-11T12:24:58.945Z,99.90
2019-05-11T12:27:28.762Z,99.90
2019-05-11T12:29:58.369Z,99.90
2019-05-11T12:32:35.590Z,99.90
2019-05-11T12:35:05.096Z,99.90
2019-05-11T12:37:34.506Z,99.90
2019-05-11T12:40:23.006Z,99.90
2019-05-11T12:42:52.477Z,99.90
2019-05-11T12:45:21.870Z,99.90
2019-05-11T12:47:51.261Z,99.90
2019-05-11T12:53:04.027Z,99.90
2019-05-11T12:55:34.603Z,99.90
2019-05-11T12:58:04.137Z,99.90
2019-05-11T13:00:33.623Z,99.90
2019-05-11T13:03:03.098Z,99.90
2019-05-11T13:05:40.216Z,99.80
2019-05-11T13:08:10.008Z,99.30
2019-05-11T13:10:42.075Z,99.90
2019-05-11T13:13:11.874Z,99.90
2019-05-11T13:15:41.284Z,98.80
2019-05-11T13:18:10.777Z,99.30
2019-05-11T13:20:40.215Z,99.50
2019-05-11T13:23:10.029Z,99.30
2019-05-11T13:25:39.537Z,99.30
2019-05-11T13:28:08.955Z,98.80
2019-05-11T13:30:38.488Z,99.90
2019-05-11T13:33:08.701Z,98.70
2019-05-11T13:35:38.304Z,98.30
2019-05-11T13:38:09.307Z,99.20
2019-05-11T13:40:40.807Z,98.90
2019-05-11T13:43:10.307Z,97.60
2019-05-11T13:45:39.716Z,95.90
2019-05-11T13:51:11.740Z,92.50
2019-05-11T13:53:43.794Z,92.00
2019-05-11T13:56:14.008Z,93.30
2019-05-11T13:58:43.459Z,94.50
2019-05-11T14:01:13.113Z,96.10
2019-05-11T14:03:42.614Z,97.50
2019-05-11T14:06:13.516Z,98.00
2019-05-11T14:08:43.238Z,97.40
2019-05-11T14:11:12.669Z,96.80
2019-05-11T14:13:42.097Z,95.00
2019-05-11T14:16:13.901Z,95.40
2019-05-11T14:18:43.375Z,96.90
2019-05-11T14:21:13.280Z,97.30
2019-05-11T14:23:44.793Z,97.80
2019-05-11T14:26:18.442Z,97.30
2019-05-11T14:28:48.169Z,98.10
2019-05-11T14:31:18.973Z,99.10
2019-05-11T14:33:49.033Z,99.70
2019-05-11T14:36:20.380Z,99.40
2019-05-11T14:38:49.666Z,98.50
2019-05-11T14:41:20.392Z,94.80
2019-05-11T14:43:49.898Z,95.20
2019-05-11T14:46:19.396Z,96.00
2019-05-11T14:48:48.993Z,96.60
2019-05-11T14:51:18.487Z,97.30
2019-05-11T14:56:44.884Z,97.30
2019-05-11T15:05:20.899Z,98.90
2019-05-11T15:10:39.657Z,98.80
2019-05-11T15:13:09.943Z,98.30
2019-05-11T15:15:41.998Z,97.50
2019-05-11T15:18:11.549Z,94.20
2019-05-11T15:20:41.692Z,94.50
2019-05-11T15:23:11.210Z,92.60
2019-05-11T15:28:48.493Z,91.70
2019-05-11T15:31:22.231Z,90.90
2019-05-11T15:33:49.291Z,90.90
2019-05-11T15:36:19.366Z,90.10
2019-05-11T15:38:49.028Z,91.60
2019-05-11T15:41:18.465Z,91.70
2019-05-11T15:43:48.168Z,91.30
2019-05-11T15:46:19.733Z,90.90
2019-05-11T15:48:58.758Z,90.80
2019-05-11T15:51:20.781Z,89.20
2019-05-11T15:53:50.423Z,90.30
2019-05-11T15:59:39.556Z,92.00
2019-05-11T16:02:09.006Z,91.80
2019-05-11T16:04:41.390Z,92.50
2019-05-11T16:10:18.698Z,95.30
2019-05-11T16:12:49.147Z,93.10
2019-05-11T16:15:19.888Z,91.60
2019-05-11T16:17:51.813Z,92.00
2019-05-11T16:20:23.353Z,90.90
2019-05-11T16:22:53.548Z,91.30
2019-05-11T16:25:23.089Z,91.40
2019-05-11T16:27:52.611Z,92.90
2019-05-11T16:30:22.121Z,93.80
2019-05-11T16:32:51.643Z,93.10
2019-05-11T16:35:21.209Z,93.00
2019-05-11T16:37:50.721Z,93.30
2019-05-11T16:40:21.258Z,94.40
2019-05-11T16:42:52.136Z,93.40
2019-05-11T16:45:23.956Z,92.60
2019-05-11T16:47:54.230Z,94.40
2019-05-11T16:50:24.061Z,95.00
2019-05-11T16:52:53.605Z,94.40
2019-05-11T16:55:23.086Z,93.80
2019-05-11T16:57:53.034Z,93.80
2019-05-11T17:00:26.108Z,93.80
2019-05-11T17:02:57.638Z,93.20
2019-05-11T17:05:33.176Z,94.00
2019-05-11T17:11:04.208Z,93.30
2019-05-11T17:13:34.669Z,93.50
2019-05-11T17:16:04.256Z,93.30
2019-05-11T17:18:33.801Z,93.30
2019-05-11T17:21:04.710Z,94.40
2019-05-11T17:23:38.064Z,94.20
2019-05-11T17:26:32.363Z,95.10
2019-05-11T17:29:01.904Z,94.70
2019-05-11T17:31:32.520Z,94.90
2019-05-11T17:34:02.124Z,95.40
2019-05-11T17:36:34.106Z,95.30
2019-05-11T17:39:06.154Z,94.80
2019-05-11T17:41:35.678Z,95.30
2019-05-11T17:44:07.803Z,95.20
2019-05-11T17:46:39.939Z,95.10
2019-05-11T17:49:11.785Z,95.40
2019-05-11T17:51:43.318Z,95.40
2019-05-11T17:54:12.916Z,95.30
2019-05-11T17:56:42.472Z,95.50
2019-05-11T17:59:13.267Z,95.70
2019-05-11T18:01:42.699Z,95.70
2019-05-11T18:04:37.493Z,96.40
2019-05-11T18:07:07.003Z,96.60
2019-05-11T18:09:38.033Z,97.10
2019-05-11T18:12:09.738Z,97.50
2019-05-11T18:14:39.509Z,97.80
2019-05-11T18:17:10.061Z,97.80
2019-05-11T18:19:39.790Z,98.20
2019-05-11T18:22:11.457Z,98.20
2019-05-11T18:24:40.962Z,98.30
2019-05-11T18:27:10.444Z,98.80
2019-05-11T18:29:40.072Z,99.00
2019-05-11T18:32:10.334Z,99.10
2019-05-11T18:34:40.110Z,99.70
2019-05-11T18:37:09.680Z,99.60
2019-05-11T18:39:39.157Z,99.80
2019-05-11T18:42:08.687Z,99.90
2019-05-11T18:44:38.195Z,99.90
2019-05-11T18:47:08.912Z,99.90
2019-05-11T18:49:38.314Z,99.90
2019-05-11T18:52:21.859Z,99.90
2019-05-11T18:54:51.367Z,99.90
2019-05-11T18:57:20.925Z,99.90
2019-05-11T19:02:50.558Z,99.90
2019-05-11T19:05:22.923Z,99.90
2019-05-11T19:07:52.786Z,99.90
2019-05-11T19:10:22.212Z,99.90
2019-05-11T19:12:51.774Z,99.90
2019-05-11T19:15:21.234Z,99.90
2019-05-11T19:20:49.317Z,99.90
2019-05-11T19:23:19.170Z,99.90
2019-05-11T19:25:50.494Z,99.90
2019-05-11T19:28:20.019Z,99.90
2019-05-11T19:30:49.480Z,99.90
2019-05-11T19:33:19.189Z,99.90
2019-05-11T19:35:48.783Z,99.90
2019-05-11T19:38:18.978Z,99.90
2019-05-11T19:40:48.608Z,99.90
2019-05-11T19:43:18.517Z,99.90
2019-05-11T19:45:48.719Z,99.90
2019-05-11T19:48:18.315Z,99.90
2019-05-11T19:51:02.748Z,99.90
2019-05-11T19:53:18.957Z,99.90
2019-05-11T19:55:48.502Z,99.90
2019-05-11T19:58:19.252Z,99.90
2019-05-11T20:00:49.026Z,99.90
2019-05-11T20:03:18.480Z,99.90
2019-05-11T20:05:48.560Z,99.90
2019-05-11T20:08:18.571Z,99.90
2019-05-11T20:10:48.684Z,99.90
2019-05-11T20:13:18.426Z,99.90
2019-05-11T20:15:48.489Z,99.90
2019-05-11T20:18:18.490Z,99.90
2019-05-11T20:20:48.182Z,99.90
2019-05-11T20:23:17.646Z,99.90
2019-05-11T20:25:47.868Z,99.90
2019-05-11T20:28:18.168Z,99.90
2019-05-11T20:30:48.431Z,99.90
2019-05-11T20:33:18.928Z,99.90
2019-05-11T20:35:48.868Z,99.90
2019-05-11T20:41:24.288Z,99.90
2019-05-11T20:43:53.797Z,99.90
2019-05-11T20:46:23.256Z,99.90
2019-05-11T20:48:52.678Z,99.90
2019-05-11T20:51:41.698Z,99.90
2019-05-11T20:54:11.140Z,99.90
2019-05-11T20:56:40.851Z,99.90
2019-05-11T20:59:10.172Z,99.90
2019-05-11T21:01:39.571Z,99.90
2019-05-11T21:04:08.993Z,99.90
2019-05-11T21:06:38.495Z,99.90
2019-05-11T21:09:08.299Z,99.90
2019-05-11T21:11:37.870Z,99.90
2019-05-11T21:14:07.993Z,99.90
2019-05-11T21:16:38.649Z,99.90
2019-05-11T21:19:08.327Z,99.90
2019-05-11T21:21:49.537Z,99.90
2019-05-11T21:24:08.892Z,99.90
2019-05-11T21:26:38.565Z,99.90
2019-05-11T21:29:08.552Z,99.90
2019-05-11T21:31:40.588Z,99.90
2019-05-11T21:34:09.166Z,99.90
2019-05-11T21:36:38.662Z,99.90
2019-05-11T21:39:09.466Z,99.90
2019-05-11T21:41:38.824Z,99.90
2019-05-11T21:44:08.418Z,99.90
2019-05-11T21:46:38.852Z,99.90
2019-05-11T21:49:08.460Z,99.90
2019-05-11T21:51:38.198Z,99.90
2019-05-11T21:54:07.642Z,99.90
2019-05-11T21:56:40.566Z,99.90
2019-05-11T21:59:08.185Z,99.90
2019-05-11T22:01:39.591Z,99.90
2019-05-11T22:04:11.309Z,99.90
2019-05-11T22:06:39.783Z,99.90
2019-05-11T22:09:09.618Z,99.90
2019-05-11T22:11:39.014Z,99.90
2019-05-11T22:14:08.428Z,99.90
2019-05-11T22:16:38.662Z,99.90
2019-05-11T22:19:08.999Z,99.90
2019-05-11T22:21:38.597Z,99.90
2019-05-11T22:24:08.631Z,99.90
2019-05-11T22:26:38.147Z,99.90
2019-05-11T22:29:07.947Z,99.90
2019-05-11T22:31:38.253Z,99.90
2019-05-11T22:34:32.327Z,99.90
2019-05-11T22:37:01.721Z,99.90
2019-05-11T22:39:31.101Z,99.90
2019-05-11T22:42:00.521Z,99.90
2019-05-11T22:44:29.974Z,99.90
2019-05-11T22:46:59.394Z,99.90
2019-05-11T22:49:28.784Z,99.90
2019-05-11T22:51:59.785Z,99.90
2019-05-11T22:54:29.409Z,99.90
2019-05-11T22:56:58.810Z,99.90
2019-05-11T22:59:39.898Z,99.90
2019-05-11T23:02:10.785Z,99.90
2019-05-11T23:04:40.354Z,99.90
2019-05-11T23:07:09.799Z,99.90
2019-05-11T23:09:39.286Z,99.90
2019-05-11T23:12:08.995Z,99.90
2019-05-11T23:14:38.659Z,99.90
2019-05-11T23:17:08.225Z,99.90
2019-05-11T23:19:38.144Z,99.90
2019-05-11T23:22:08.308Z,99.90
2019-05-11T23:24:37.871Z,99.90
2019-05-11T23:27:07.986Z,99.90
2019-05-11T23:29:58.110Z,99.90
2019-05-11T23:32:27.657Z,99.90
2019-05-11T23:34:57.063Z,99.90
2019-05-11T23:37:27.838Z,99.90
2019-05-11T23:39:58.510Z,99.90
2019-05-11T23:42:30.589Z,99.90
2019-05-11T23:44:59.014Z,99.90
2019-05-11T23:47:28.899Z,99.90
2019-05-11T23:49:58.645Z,99.90
2019-05-11T23:52:50.109Z,99.90
2019-05-11T23:55:19.049Z,99.90
2019-05-11T23:57:49.163Z,99.90
